Terminal Aerodrome Forecast
Issued by NWS Detroit/Pontiac, MI

Home | Current Version | Previous Version | Text Only | Print | Product List | Glossary On
Versions: 1 2 3 4 5 6 7 8 9 10 11 12 13 14 15 16 17 18
000
FTUS43 KDTX 161100 CCA
TAFFNT
TAF COR
KFNT 161138Z 1612/1712 27005KT 1/2SM FG OVC004
     FM161400 27006KT 2SM BR BKN004
     FM161500 27007KT P6SM SCT025 BKN040
      TEMPO 1615/1616 BKN007
     FM162100 28006KT P6SM SCT050
     FM170100 27003KT P6SM SKC=

USA.gov is the U.S. government's official web portal to all federal, state and local government web resources and services.